• Join FlightAware (Why Join?)
  • Login
  • US Flag 
03:40PM EST


 

Airport Tracker/Info


-or-


 

Live Flight TrackerFlight Track Log ✈ AMF1326 ✈ 14-Jun-2013 ✈ KCVG - KALB

Flight Track Log - Related Links

Times and Time Zones

All times are in EDT time to prevent confusion due to time zone crossing. See the AMF1326 flight status page for this flight to view local times or setup timezone preferences in your user account.

Time Position Orientation Groundspeed Altitude Reporting Facility
EDT Latitude Longitude Course Direction KTS MPH feet Rate Location/Type
05:08AM 39.0667 -84.6667 38° Northeast 154 177 1,200  Level Cincinnati TRACON
05:08AM 39.0833 -84.6500 38° Northeast 161 185 2,100 1,500 Climbing Cincinnati TRACON
05:09AM 39.1167 -84.6167 38° Northeast 168 193 3,600 1,296 Climbing Cincinnati TRACON
05:10AM 39.1603 -84.5894 26° Northeast 153 176 4,800 1,238 Climbing Indianapolis Center
05:11AM 39.2033 -84.5572 30° Northeast 175 201 6,200 1,328 Climbing Indianapolis Center
05:12AM 39.2467 -84.5269 28° Northeast 176 203 7,500 1,230 Climbing Indianapolis Center
05:13AM 39.2900 -84.4953 29° Northeast 176 203 8,700 1,180 Climbing Indianapolis Center
05:14AM 39.3325 -84.4681 26° Northeast 170 196 9,900 1,091 Climbing Indianapolis Center
05:15AM 39.3733 -84.4378 30° Northeast 168 193 10,900 942 Climbing Indianapolis Center
05:16AM 39.4156 -84.4081 29° Northeast 170 196 11,800 836 Climbing Indianapolis Center
05:17AM 39.4575 -84.3792 28° Northeast 170 196 12,600 738 Climbing Indianapolis Center
05:18AM 39.4986 -84.3492 29° Northeast 169 194 13,300 793 Climbing Indianapolis Center
05:19AM 39.5431 -84.3219 25° Northeast 171 197 14,200 843 Climbing Indianapolis Center
05:20AM 39.5833 -84.2914 30° Northeast 169 194 15,000 689 Climbing Indianapolis Center
05:21AM 39.6256 -84.2631 27° Northeast 169 194 15,600 639 Climbing Indianapolis Center
05:23AM 39.6664 -84.2308 31° Northeast 171 197 16,300 694 Climbing Indianapolis Center
05:24AM 39.7164 -84.2000 25° Northeast 170 196 17,000 694 Climbing Indianapolis Center
05:25AM 39.7586 -84.1700 29° Northeast 171 197 17,700 590 Climbing Indianapolis Center
05:26AM 39.7917 -84.1450 30° Northeast 167 192 18,200 496 Climbing Indianapolis Center
05:27AM 39.8306 -84.1164 29° Northeast 161 185 18,700 347 Climbing Indianapolis Center
05:28AM 39.8633 -84.0661 50° Northeast 186 214 18,900 148 Climbing Indianapolis Center
05:29AM 39.9022 -84.0236 40° Northeast 181 208 19,000 50 Climbing Indianapolis Center
05:30AM 39.9442 -83.9753 41° Northeast 193 222 19,000  Level Indianapolis Center
05:31AM 39.9878 -83.9258 41° Northeast 203 234 19,000  Level Indianapolis Center
05:32AM 40.0314 -83.8717 44° Northeast 214 246 19,000  Level Indianapolis Center
05:33AM 40.0753 -83.8186 43° Northeast 214 246 19,000 -50 Level Indianapolis Center
05:34AM 40.1203 -83.7653 42° Northeast 214 246 18,900  Descending Indianapolis Center
05:35AM 40.1650 -83.7083 44° Northeast 219 252 19,000 50 Climbing Indianapolis Center
05:36AM 40.2133 -83.6617 36° Northeast 213 245 19,000  Level Indianapolis Center
05:37AM 40.2539 -83.6017 48° Northeast 220 253 19,000  Level Indianapolis Center
05:38AM 40.2872 -83.5303 59° Northeast 226 260 19,000  Level Indianapolis Center
05:39AM 40.3208 -83.4578 59° Northeast 232 267 19,000  Level Indianapolis Center
05:40AM 40.3547 -83.3886 57° Northeast 224 258 19,000  Level Indianapolis Center
05:41AM 40.3900 -83.3203 56° Northeast 223 257 19,000  Level Indianapolis Center
05:42AM 40.4264 -83.2536 54° Northeast 223 257 19,000  Level Indianapolis Center
05:43AM 40.4608 -83.1867 56° Northeast 220 253 19,000  Level Indianapolis Center
05:44AM 40.4853 -83.1072 68° East 230 265 19,000  Level Indianapolis Center
05:45AM 40.5164 -83.0275 63° Northeast 224 258 19,000  Level Indianapolis Center
05:46AM 40.5497 -82.9578 58° Northeast 224 258 19,000  Level Indianapolis Center
05:47AM 40.5781 -82.8828 64° Northeast 226 260 19,000  Level Indianapolis Center
05:48AM 40.6114 -82.8128 58° Northeast 226 260 19,000  Level Indianapolis Center
05:49AM 40.6461 -82.7442 56° Northeast 224 258 19,000 -50 Level Indianapolis Center
05:50AM 40.6733 -82.6842 59° Northeast 227 261 18,900 -50 Descending Indianapolis Center
05:51AM 40.7031 -82.6133 61° Northeast 221 254 18,900  Level Indianapolis Center
05:52AM 40.7383 -82.5450 56° Northeast 224 258 18,900  Level Indianapolis Center
05:53AM 40.7722 -82.4761 57° Northeast 223 257 18,900 50 Level Indianapolis Center
05:54AM 40.8019 -82.4028 62° Northeast 225 259 19,000  Climbing Indianapolis Center
05:55AM 40.8339 -82.3317 59° Northeast 224 258 18,900  Descending Indianapolis Center
05:56AM 40.8631 -82.2581 62° Northeast 224 258 19,000 50 Climbing Indianapolis Center
05:57AM 40.8939 -82.1844 61° Northeast 223 257 19,000 -50 Level Cleveland Center
05:58AM 40.9261 -82.1139 59° Northeast 218 251 18,900  Descending Cleveland Center
05:59AM 40.9542 -82.0403 63° Northeast 225 259 19,000  Climbing Cleveland Center
06:00AM 40.9883 -81.9722 56° Northeast 220 253 18,900 -50 Descending Cleveland Center
06:01AM 41.0225 -81.9014 57° Northeast 220 253 18,900  Level Cleveland Center
06:02AM 41.0525 -81.8306 61° Northeast 226 260 18,900  Level Cleveland Center
06:03AM 41.0825 -81.7567 62° Northeast 220 253 18,900  Level Cleveland Center
06:04AM 41.1144 -81.6883 58° Northeast 220 253 18,900  Level Cleveland Center
06:05AM 41.1508 -81.6089 59° Northeast 220 253 18,900  Level Cleveland Center
06:06AM 41.1806 -81.5322 63° Northeast 225 259 18,900  Level Cleveland Center
06:07AM 41.2144 -81.4636 57° Northeast 219 252 18,900  Level Cleveland Center
06:08AM 41.2400 -81.4033 61° Northeast 211 243 18,900  Level Cleveland Center
06:09AM 41.2739 -81.3236 60° Northeast 211 243 18,900 50 Level Cleveland Center
06:10AM 41.3056 -81.2547 59° Northeast 211 243 19,000  Climbing Cleveland Center
06:11AM 41.3350 -81.1831 61° Northeast 216 249 18,900 -50 Descending Cleveland Center
06:12AM 41.3667 -81.1089 60° Northeast 221 254 18,900  Level Cleveland Center
06:13AM 41.3961 -81.0397 60° Northeast 221 254 18,900  Level Cleveland Center
06:14AM 41.4256 -80.9653 62° Northeast 221 254 18,900  Level Cleveland Center
06:15AM 41.4592 -80.8933 58° Northeast 221 254 18,900  Level Cleveland Center
06:16AM 41.4886 -80.8186 62° Northeast 221 254 18,900  Level Cleveland Center
06:17AM 41.5200 -80.7439 61° Northeast 221 254 18,900  Level Cleveland Center
06:18AM 41.5514 -80.6719 60° Northeast 221 254 18,900  Level Cleveland Center
06:19AM 41.5806 -80.5969 63° Northeast 221 254 18,900  Level Cleveland Center
06:20AM 41.6078 -80.5358 59° Northeast 221 254 18,900  Level Cleveland Center
06:21AM 41.6389 -80.4608 61° Northeast 221 254 18,900  Level Cleveland Center
06:22AM 41.6742 -80.3914 56° Northeast 221 254 18,900  Level Cleveland Center
06:23AM 41.7011 -80.3161 64° Northeast 221 254 18,900  Level Cleveland Center
06:24AM 41.7344 -80.2436 58° Northeast 221 254 18,900  Level Cleveland Center
06:25AM 41.7653 -80.1711 60° Northeast 221 254 18,900  Level Cleveland Center
06:26AM 41.7964 -80.0958 61° Northeast 221 254 18,900  Level Cleveland Center
06:27AM 41.8272 -80.0147 63° Northeast 221 254 18,900  Level Cleveland Center
06:28AM 41.8561 -79.9419 62° Northeast 221 254 18,900  Level Cleveland Center
06:29AM 41.8847 -79.8636 64° Northeast 221 254 18,900  Level Cleveland Center
06:30AM 41.9197 -79.7906 57° Northeast 221 254 18,900  Level Cleveland Center
06:31AM 41.9464 -79.7150 65° Northeast 221 254 18,900 50 Level Cleveland Center
06:32AM 41.9792 -79.6447 58° Northeast 221 254 19,000  Climbing Cleveland Center
06:33AM 42.0075 -79.5661 64° Northeast 221 254 18,900 -50 Descending Cleveland Center
06:34AM 42.0403 -79.4956 58° Northeast 221 254 18,900 50 Level Cleveland Center
06:35AM 42.0708 -79.4194 62° Northeast 221 254 19,000  Climbing Cleveland Center
06:36AM 42.0972 -79.3464 64° Northeast 221 254 18,900  Descending Cleveland Center
06:37AM 42.1256 -79.2731 62° Northeast 221 254 19,000  Climbing Cleveland Center
06:38AM 42.1539 -79.1967 63° Northeast 221 254 18,900  Descending Cleveland Center
06:39AM 42.1842 -79.1206 62° Northeast 221 254 19,000 50 Climbing Cleveland Center
06:40AM 42.2019 -79.0386 74° East 221 254 19,000  Level Cleveland Center
06:41AM 42.2111 -78.9517 82° East 226 260 19,000  Level Cleveland Center
06:42AM 42.2225 -78.8728 79° East 231 266 19,000  Level Cleveland Center
06:43AM 42.2317 -78.7883 82° East 231 266 19,000  Level Cleveland Center
06:44AM 42.2447 -78.7039 78° East 231 266 19,000  Level Cleveland Center
06:45AM 42.2517 -78.6167 84° East 236 272 19,000  Level Cleveland Center
06:46AM 42.2647 -78.5294 79° East 236 272 19,000  Level Cleveland Center
06:47AM 42.2756 -78.4419 80° East 236 272 19,000  Level Cleveland Center
06:48AM 42.2867 -78.3547 80° East 236 272 19,000  Level Cleveland Center
06:49AM 42.2975 -78.2700 80° East 236 272 19,000  Level Cleveland Center
06:50AM 42.3081 -78.1853 80° East 236 272 19,000  Level Cleveland Center
06:51AM 42.3189 -78.0978 80° East 231 266 19,000  Level Cleveland Center
06:52AM 42.3275 -78.0133 82° East 231 266 19,000  Level Cleveland Center
06:53AM 42.3381 -77.9314 80° East 231 266 19,000  Level Cleveland Center
06:54AM 42.3486 -77.8439 81° East 231 266 19,000  Level Cleveland Center
06:55AM 42.3569 -77.7592 82° East 231 266 19,000  Level Cleveland Center
06:56AM 42.3694 -77.6800 78° East 226 260 19,000  Level Cleveland Center
06:57AM 42.3797 -77.5950 81° East 226 260 19,000  Level Cleveland Center
06:59AM 42.3978 -77.4111 82° East 220 253 19,000  Level New York Center
07:00AM 42.4078 -77.3253 81° East 219 252 19,000  Level Boston Center
07:01AM 42.4175 -77.2472 80° East 219 252 19,000  Level Boston Center
07:02AM 42.4292 -77.1639 79° East 219 252 19,000  Level Boston Center
07:03AM 42.4350 -77.0769 85° East 219 252 19,000  Level Boston Center
07:04AM 42.4447 -76.9906 81° East 219 252 19,000  Level Boston Center
07:05AM 42.4544 -76.9011 82° East 224 258 19,000  Level Boston Center
07:06AM 42.4619 -76.8142 83° East 229 264 19,000  Level Boston Center
07:07AM 42.4714 -76.7306 81° East 229 264 19,000  Level Boston Center
07:08AM 42.4811 -76.6439 81° East 235 270 19,000  Level Boston Center
07:09AM 42.4903 -76.5572 82° East 235 270 19,000  Level Boston Center
07:10AM 42.4997 -76.4706 82° East 235 270 19,000  Level Boston Center
07:11AM 42.5092 -76.3836 82° East 235 270 19,000  Level Boston Center
07:12AM 42.5183 -76.2942 82° East 235 270 19,000  Level Boston Center
07:13AM 42.5258 -76.1986 84° East 241 277 19,000  Level Boston Center
07:14AM 42.5369 -76.1147 80° East 231 266 19,000  Level Boston Center
07:15AM 42.5436 -76.0306 84° East 231 266 19,000  Level Boston Center
07:16AM 42.5528 -75.9408 82° East 231 266 19,000  Level Boston Center
07:17AM 42.5617 -75.8569 82° East 231 266 19,000 -300 Level Boston Center
07:18AM 42.5725 -75.7700 80° East 231 266 18,400 -800 Descending Boston Center
07:19AM 42.5817 -75.6747 83° East 241 277 17,400 -650 Descending Boston Center
07:20AM 42.5925 -75.5792 81° East 247 284 17,100 -136 Descending Boston Center
07:21AM 42.6014 -75.4867 83° East 252 290 17,100 -364 Level Boston Center
07:22AM 42.6081 -75.3853 85° East 252 290 16,300 -1,000 Descending Boston Center
07:23AM 42.6169 -75.2897 83° East 252 290 15,100 -1,200 Descending Boston Center
07:24AM 42.6378 -75.2006 72° East 252 290 13,900 -1,150 Descending Boston Center
07:25AM 42.6564 -75.1194 73° East 241 277 12,800 -1,150 Descending Boston Center
07:26AM 42.6750 -75.0325 74° East 235 270 11,600 -850 Descending Boston Center
07:27AM 42.6958 -74.9489 71° East 235 270 11,100 -250 Descending Boston Center
07:28AM 42.7144 -74.8619 74° East 235 270 11,100 -53 Level Boston Center
07:29AM 42.7306 -74.7806 75° East 232 267 11,000  Descending Boston Center
07:29AM 42.7308 -74.7750 86° East 235 270 11,100 -167 Climbing Boston Center
07:30AM 42.7400 -74.7300 74° East 230 265 10,900  Descending Boston Center
07:30AM 42.7494 -74.6767 76° East 235 270 11,100 98 Climbing Boston Center
07:31AM 42.7564 -74.6431 74° East 229 264 11,000  Descending Boston Center
07:31AM 42.7700 -74.5869 72° East 224 258 11,100  Climbing Boston Center
07:32AM 42.7767 -74.5617 70° East 228 262 11,000 -300 Descending Boston Center
07:32AM 42.7839 -74.5108 79° East 224 258 10,800 -787 Descending Boston Center
07:33AM 42.7761 -74.4767 107° East 244 281 10,200 -1,600 Descending Boston Center
07:33AM 42.7583 -74.4139 111° Southeast 219 252 9,200 -1,612 Descending Boston Center
07:34AM 42.7508 -74.3742 104° East 247 284 8,400 -1,500 Descending Boston Center
07:34AM 42.7408 -74.3369 110° East 233 268 7,700 -1,556 Descending Boston Center
07:35AM 42.7292 -74.3000 113° Southeast 240 276 7,000 -1,500 Descending Boston Center
07:35AM 42.7133 -74.2458 112° Southeast 233 268 6,200 -1,279 Descending Boston Center
07:36AM 42.7053 -74.2172 111° Southeast 233 268 5,700 -1,083 Descending Boston Center
07:37AM 42.6936 -74.1717 109° East 233 268 4,900 -1,200 Descending Boston Center
07:38AM 42.6658 -74.0750 111° Southeast 227 261 3,500 -800 Descending Boston Center
07:39AM 42.6542 -74.0125 104° East 216 249 3,300 -250 Descending Boston Center
07:40AM 42.6472 -73.9219 96° East 203 234 3,000 -400 Descending Boston Center
07:41AM 42.6397 -73.8542 99° East 203 234 2,500 -761 Descending Boston Center
07:42AM 42.6861 -73.8042 38° Northeast 129 148 1,300 -806 Descending Boston Center
07:43AM 42.7194 -73.8078 355° North 112 129 700 -600 Descending Boston Center
07:46AM 42.7333 -73.8000 53° Northeast  Level FlightAware Approximate